Time;durP1;ratioP1;P1;durP2;ratioP2;P2;SDS_P1;SDS_P2;PMS_P1;PMS_P2;Temp;Humidity;BMP_temperature;BMP_pressure;BME280_temperature;BME280_humidity;BME280_pressure;Samples;Min_cycle;Max_cycle;Signal;HPM_P1;HPM_P2
2020/12/04 00:00:25;;;;;;;32.45;29.30;;;;;;;;;;5074402;28;20187;-80
2020/12/04 00:02:52;;;;;;;29.80;27.40;;;;;;;;;;5074657;28;20223;-80
2020/12/04 00:05:19;;;;;;;27.77;25.83;;;;;;;;;;5074270;28;20669;-80
2020/12/04 00:07:46;;;;;;;30.05;27.67;;;;;;;;;;5074103;28;20196;-80
2020/12/04 00:10:14;;;;;;;30.00;27.70;;;;;;;;;;5056263;28;20283;-79
2020/12/04 00:12:41;;;;;;;28.73;26.55;;;;;;;;;;5073945;28;20191;-80
2020/12/04 00:15:08;;;;;;;31.83;29.30;;;;;;;;;;5074221;28;20227;-80
2020/12/04 00:17:34;;;;;;;30.48;27.85;;;;;;;;;;5073951;28;20327;-80
2020/12/04 00:20:01;;;;;;;32.25;29.45;;;;;;;;;;5074052;28;20191;-80
2020/12/04 00:22:28;;;;;;;28.02;25.88;;;;;;;;;;5073868;28;20485;-80
2020/12/04 00:24:55;;;;;;;29.98;27.25;;;;;;;;;;5073267;28;20207;-80
2020/12/04 00:27:23;;;;;;;28.42;26.17;;;;;;;;;;5056470;28;20196;-80
2020/12/04 00:29:50;;;;;;;32.90;30.15;;;;;;;;;;5073892;28;20195;-80
2020/12/04 00:32:17;;;;;;;29.27;26.85;;;;;;;;;;5073523;28;20243;-79
2020/12/04 00:34:44;;;;;;;30.83;28.42;;;;;;;;;;5055825;28;20204;-80
2020/12/04 00:37:12;;;;;;;29.20;26.70;;;;;;;;;;5055913;28;20242;-80
2020/12/04 00:39:38;;;;;;;31.98;29.27;;;;;;;;;;5056195;28;20250;-79
2020/12/04 00:42:05;;;;;;;27.63;25.70;;;;;;;;;;5073978;28;20184;-80
2020/12/04 00:44:33;;;;;;;29.10;26.75;;;;;;;;;;5056112;28;20203;-80
2020/12/04 00:47:01;;;;;;;30.85;28.35;;;;;;;;;;5073941;28;20246;-80
2020/12/04 00:49:28;;;;;;;32.15;29.35;;;;;;;;;;5073524;28;20218;-80
2020/12/04 00:51:55;;;;;;;30.83;28.42;;;;;;;;;;5073862;28;20199;-80
2020/12/04 00:54:22;;;;;;;28.05;25.80;;;;;;;;;;5055995;28;20543;-80
2020/12/04 00:56:49;;;;;;;30.90;28.30;;;;;;;;;;5073632;28;20198;-80
2020/12/04 00:59:16;;;;;;;28.13;25.92;;;;;;;;;;5073645;28;20278;-80
2020/12/04 01:01:43;;;;;;;32.47;29.75;;;;;;;;;;5073552;28;20194;-80
2020/12/04 01:04:10;;;;;;;30.52;28.13;;;;;;;;;;5073552;28;20200;-81
2020/12/04 01:06:37;;;;;;;31.08;28.48;;;;;;;;;;5073588;28;20188;-80
2020/12/04 01:09:05;;;;;;;31.58;28.98;;;;;;;;;;5073285;28;20650;-81
2020/12/04 01:11:32;;;;;;;29.83;26.92;;;;;;;;;;5073647;28;20196;-80
2020/12/04 01:13:59;;;;;;;29.75;27.42;;;;;;;;;;5073503;28;20286;-80
2020/12/04 01:16:26;;;;;;;28.52;26.33;;;;;;;;;;5073146;28;20808;-79
2020/12/04 01:18:54;;;;;;;31.92;29.25;;;;;;;;;;5073087;28;20231;-80
2020/12/04 01:21:21;;;;;;;32.13;29.42;;;;;;;;;;5073583;28;20184;-80
2020/12/04 01:23:48;;;;;;;27.67;25.63;;;;;;;;;;5073394;28;20188;-80
2020/12/04 01:26:14;;;;;;;30.25;27.85;;;;;;;;;;5055313;28;20261;-80
2020/12/04 01:28:41;;;;;;;30.88;28.50;;;;;;;;;;5073857;28;20230;-80
2020/12/04 01:31:09;;;;;;;32.88;30.00;;;;;;;;;;5077373;28;20239;-80
2020/12/04 01:33:36;;;;;;;32.67;29.95;;;;;;;;;;5077321;28;20556;-80
2020/12/04 01:36:04;;;;;;;30.80;28.27;;;;;;;;;;5077207;28;20194;-80
2020/12/04 01:38:31;;;;;;;32.30;29.65;;;;;;;;;;5077063;28;20285;-80
2020/12/04 01:40:59;;;;;;;31.67;28.98;;;;;;;;;;5077107;28;20192;-80
2020/12/04 01:43:25;;;;;;;33.03;30.30;;;;;;;;;;5077156;28;20223;-80
2020/12/04 01:45:52;;;;;;;28.77;26.55;;;;;;;;;;5076952;28;20630;-79
2020/12/04 01:48:19;;;;;;;32.30;29.60;;;;;;;;;;5076937;28;20275;-80
2020/12/04 01:50:46;;;;;;;33.13;30.23;;;;;;;;;;5076777;28;20663;-80
2020/12/04 01:53:14;;;;;;;28.45;26.13;;;;;;;;;;5076988;28;20188;-80
2020/12/04 01:55:41;;;;;;;30.00;27.45;;;;;;;;;;5076793;28;20204;-80
2020/12/04 01:58:12;;;;;;;30.58;28.17;;;;;;;;;;5076439;28;20211;-80
2020/12/04 02:00:38;;;;;;;29.27;26.75;;;;;;;;;;5076758;28;20218;-80
2020/12/04 02:03:08;;;;;;;32.88;29.85;;;;;;;;;;5076799;28;20193;-80
2020/12/04 02:05:35;;;;;;;28.45;25.58;;;;;;;;;;5076879;28;20239;-80
2020/12/04 02:08:07;;;;;;;34.38;31.27;;;;;;;;;;5076418;28;20250;-80
2020/12/04 02:10:39;;;;;;;30.08;27.67;;;;;;;;;;5076448;28;20191;-80
2020/12/04 02:13:07;;;;;;;29.35;27.05;;;;;;;;;;5058985;28;20208;-80
2020/12/04 02:15:35;;;;;;;33.28;30.25;;;;;;;;;;5076712;28;20227;-80
2020/12/04 02:18:03;;;;;;;33.17;30.13;;;;;;;;;;5076188;28;20215;-80
2020/12/04 02:20:32;;;;;;;31.23;28.63;;;;;;;;;;5076392;28;20197;-80
2020/12/04 02:22:59;;;;;;;33.60;30.50;;;;;;;;;;5075619;28;20608;-80
2020/12/04 02:25:26;;;;;;;32.47;29.60;;;;;;;;;;5076182;28;20193;-80
2020/12/04 02:27:53;;;;;;;31.65;28.90;;;;;;;;;;5076413;28;20196;-80
2020/12/04 02:30:22;;;;;;;32.13;29.52;;;;;;;;;;5075961;28;20196;-80
2020/12/04 02:32:48;;;;;;;33.63;30.65;;;;;;;;;;5075955;28;20236;-80
2020/12/04 02:35:15;;;;;;;29.88;27.40;;;;;;;;;;5076306;28;20203;-80
2020/12/04 02:37:43;;;;;;;32.85;29.90;;;;;;;;;;5076127;28;20224;-80
2020/12/04 02:40:10;;;;;;;34.38;31.25;;;;;;;;;;5075971;28;20598;-80
2020/12/04 02:42:37;;;;;;;33.95;31.10;;;;;;;;;;5076033;28;20204;-80
2020/12/04 02:45:04;;;;;;;30.90;28.35;;;;;;;;;;5075750;28;20209;-80
2020/12/04 02:47:31;;;;;;;29.98;27.40;;;;;;;;;;5075787;28;20665;-80
2020/12/04 02:49:57;;;;;;;31.20;28.60;;;;;;;;;;5075687;28;20188;-80
2020/12/04 02:52:25;;;;;;;32.75;29.77;;;;;;;;;;5075449;28;20197;-79
2020/12/04 02:54:53;;;;;;;31.40;28.70;;;;;;;;;;5057871;28;20639;-80
2020/12/04 02:57:20;;;;;;;31.08;28.33;;;;;;;;;;5075595;28;20245;-80
2020/12/04 02:59:47;;;;;;;30.05;27.55;;;;;;;;;;5075864;28;20189;-80
2020/12/04 03:02:14;;;;;;;32.80;29.95;;;;;;;;;;5075399;28;20201;-81
2020/12/04 03:04:43;;;;;;;33.30;30.40;;;;;;;;;;5058126;28;20246;-80
2020/12/04 03:07:10;;;;;;;28.42;26.25;;;;;;;;;;5075542;28;20220;-80
2020/12/04 03:09:37;;;;;;;28.58;26.27;;;;;;;;;;5075792;28;20224;-80
2020/12/04 03:12:05;;;;;;;32.28;29.27;;;;;;;;;;5075613;28;20590;-80
2020/12/04 03:14:32;;;;;;;30.77;27.92;;;;;;;;;;5075415;28;20225;-81
2020/12/04 03:16:59;;;;;;;32.05;29.20;;;;;;;;;;5075473;28;20196;-80
2020/12/04 03:19:26;;;;;;;26.50;24.50;;;;;;;;;;5075088;28;20220;-80
2020/12/04 03:21:53;;;;;;;32.55;29.65;;;;;;;;;;5075120;28;20189;-80
2020/12/04 03:24:20;;;;;;;32.00;29.25;;;;;;;;;;5075284;28;20249;-81
2020/12/04 03:26:47;;;;;;;28.80;26.55;;;;;;;;;;5074906;28;20196;-80
2020/12/04 03:29:15;;;;;;;34.05;31.02;;;;;;;;;;5057233;28;20203;-80
2020/12/04 03:31:41;;;;;;;33.10;30.00;;;;;;;;;;5074876;28;20232;-80
2020/12/04 03:34:08;;;;;;;30.90;28.05;;;;;;;;;;5075226;28;20283;-80
2020/12/04 03:36:35;;;;;;;32.45;29.77;;;;;;;;;;5074562;28;20209;-80
2020/12/04 03:39:02;;;;;;;32.92;30.33;;;;;;;;;;5074692;28;20734;-80
2020/12/04 03:41:29;;;;;;;31.05;28.45;;;;;;;;;;5075118;28;20192;-80
2020/12/04 03:43:56;;;;;;;31.30;28.70;;;;;;;;;;5075022;28;20589;-80
2020/12/04 03:46:23;;;;;;;32.15;29.55;;;;;;;;;;5074562;28;20230;-80
2020/12/04 03:48:50;;;;;;;32.38;29.70;;;;;;;;;;5056891;28;20689;-80
2020/12/04 03:51:17;;;;;;;34.17;31.17;;;;;;;;;;5074521;28;20250;-80
2020/12/04 03:53:46;;;;;;;29.23;26.73;;;;;;;;;;5074174;28;20693;-80
2020/12/04 03:56:13;;;;;;;33.15;30.25;;;;;;;;;;5074516;28;20192;-80
2020/12/04 03:58:40;;;;;;;31.13;28.52;;;;;;;;;;5074539;28;20220;-80
2020/12/04 04:01:07;;;;;;;27.75;25.33;;;;;;;;;;5074739;28;20266;-80
2020/12/04 04:03:35;;;;;;;30.45;27.95;;;;;;;;;;5074624;28;20189;-80
2020/12/04 04:06:02;;;;;;;34.35;31.27;;;;;;;;;;5074413;28;20188;-80
2020/12/04 04:08:29;;;;;;;34.42;31.45;;;;;;;;;;5074245;28;20191;-80
2020/12/04 04:10:55;;;;;;;30.50;28.00;;;;;;;;;;5074606;28;20613;-80
2020/12/04 04:13:22;;;;;;;32.42;29.88;;;;;;;;;;5074496;28;20307;-80
2020/12/04 04:15:49;;;;;;;30.65;28.10;;;;;;;;;;5073943;28;20259;-80
2020/12/04 04:18:16;;;;;;;32.17;29.60;;;;;;;;;;5074024;28;20212;-80
2020/12/04 04:20:44;;;;;;;31.33;28.73;;;;;;;;;;5074309;28;20238;-80
2020/12/04 04:23:11;;;;;;;30.58;28.15;;;;;;;;;;5073774;28;20189;-80
2020/12/04 04:25:38;;;;;;;31.58;28.95;;;;;;;;;;5073915;28;20189;-80
2020/12/04 04:28:11;;;;;;;29.92;27.45;;;;;;;;;;5073805;28;20196;-80
2020/12/04 04:30:38;;;;;;;31.15;28.55;;;;;;;;;;5073933;28;20211;-80
2020/12/04 04:33:06;;;;;;;30.90;28.40;;;;;;;;;;5056079;28;20696;-80
2020/12/04 04:38:16;;;;;;;29.98;27.48;;;;;;;;;;5052297;28;20220;-80
2020/12/04 04:40:42;;;;;;;33.95;30.98;;;;;;;;;;5073655;28;20242;-81
2020/12/04 04:43:10;;;;;;;31.58;29.02;;;;;;;;;;5073969;28;20187;-81
2020/12/04 04:45:37;;;;;;;32.03;29.40;;;;;;;;;;5073510;28;20646;-80
2020/12/04 04:48:06;;;;;;;28.67;26.13;;;;;;;;;;5055687;28;20203;-80
2020/12/04 04:50:33;;;;;;;29.70;27.40;;;;;;;;;;5073775;28;20238;-80
2020/12/04 04:53:01;;;;;;;31.23;28.63;;;;;;;;;;5073546;28;20193;-80
2020/12/04 04:55:29;;;;;;;30.90;28.55;;;;;;;;;;5073487;28;20196;-80
2020/12/04 04:57:59;;;;;;;30.70;28.10;;;;;;;;;;5073304;28;20258;-80
2020/12/04 05:00:26;;;;;;;29.75;27.38;;;;;;;;;;5073286;28;20657;-80
2020/12/04 05:02:53;;;;;;;33.33;30.33;;;;;;;;;;5073431;28;20224;-80
2020/12/04 05:05:19;;;;;;;27.48;25.45;;;;;;;;;;5073054;28;20206;-80
2020/12/04 05:07:46;;;;;;;31.30;28.80;;;;;;;;;;5073629;28;20189;-80
2020/12/04 05:10:14;;;;;;;31.15;28.55;;;;;;;;;;5073359;28;20189;-79
2020/12/04 05:12:42;;;;;;;32.20;29.52;;;;;;;;;;5073232;28;20192;-79
2020/12/04 05:15:22;;;;;;;32.75;30.05;;;;;;;;;;5055333;28;20678;-80
2020/12/04 05:18:02;;;;;;;31.40;28.90;;;;;;;;;;5073740;28;20195;-79
2020/12/04 05:20:29;;;;;;;32.00;29.33;;;;;;;;;;5073311;28;20205;-79
2020/12/04 05:22:58;;;;;;;31.20;28.60;;;;;;;;;;5073434;28;20529;-79
2020/12/04 05:25:25;;;;;;;26.45;24.55;;;;;;;;;;5073106;28;20230;-80
2020/12/04 05:27:53;;;;;;;31.20;28.77;;;;;;;;;;5073409;28;20194;-79
2020/12/04 05:30:23;;;;;;;32.40;29.73;;;;;;;;;;5073178;28;20196;-78
2020/12/04 05:33:00;;;;;;;33.92;31.08;;;;;;;;;;5072490;28;20293;-80
2020/12/04 05:35:27;;;;;;;31.08;28.58;;;;;;;;;;5073399;28;20193;-79
2020/12/04 05:38:11;;;;;;;34.28;31.27;;;;;;;;;;5055230;28;20279;-80
2020/12/04 05:40:38;;;;;;;25.48;23.70;;;;;;;;;;5072867;28;20646;-79
2020/12/04 05:43:06;;;;;;;33.15;30.27;;;;;;;;;;5073309;28;20188;-79
2020/12/04 05:45:34;;;;;;;27.90;25.60;;;;;;;;;;5073025;28;20208;-79
2020/12/04 05:48:01;;;;;;;32.03;29.08;;;;;;;;;;5055091;28;20200;-80
2020/12/04 05:50:28;;;;;;;29.50;27.20;;;;;;;;;;5073032;28;20219;-79
2020/12/04 05:52:55;;;;;;;30.88;28.33;;;;;;;;;;5073270;28;20200;-79
2020/12/04 05:55:21;;;;;;;26.17;24.33;;;;;;;;;;5073006;28;20186;-79
2020/12/04 05:57:51;;;;;;;31.38;28.70;;;;;;;;;;5072833;28;20200;-79
2020/12/04 06:00:19;;;;;;;30.92;28.30;;;;;;;;;;5072984;28;20552;-79
2020/12/04 06:02:47;;;;;;;29.85;27.45;;;;;;;;;;5054797;28;20654;-80
2020/12/04 06:05:15;;;;;;;30.60;28.00;;;;;;;;;;5073064;28;20186;-80
2020/12/04 06:07:42;;;;;;;28.50;26.30;;;;;;;;;;5054906;28;20201;-79
2020/12/04 06:10:10;;;;;;;29.23;26.73;;;;;;;;;;5073003;28;20227;-80
2020/12/04 06:12:37;;;;;;;29.67;27.60;;;;;;;;;;5072541;28;20280;-79
2020/12/04 06:15:21;;;;;;;29.92;27.83;;;;;;;;;;5073308;28;20285;-79
2020/12/04 06:17:49;;;;;;;28.50;26.50;;;;;;;;;;5076710;28;20189;-79
2020/12/04 06:20:19;;;;;;;30.77;28.30;;;;;;;;;;5076084;28;20189;-79
2020/12/04 06:23:05;;;;;;;29.58;27.17;;;;;;;;;;5076037;28;20685;-79
2020/12/04 06:26:03;;;;;;;29.70;27.45;;;;;;;;;;5076179;28;20197;-80
2020/12/04 06:28:33;;;;;;;29.55;27.30;;;;;;;;;;4994541;28;20602;-80
2020/12/04 06:31:08;;;;;;;27.65;25.33;;;;;;;;;;4994600;28;20206;-79
2020/12/04 06:33:36;;;;;;;27.15;25.08;;;;;;;;;;4994692;28;20546;-79
2020/12/04 06:36:04;;;;;;;30.60;28.30;;;;;;;;;;4994596;28;20222;-79
2020/12/04 06:38:43;;;;;;;28.98;26.85;;;;;;;;;;4994144;28;20315;-79
2020/12/04 06:41:19;;;;;;;29.05;26.85;;;;;;;;;;4994551;28;20291;-79
2020/12/04 06:43:47;;;;;;;30.23;27.70;;;;;;;;;;4994042;28;20314;-78
2020/12/04 06:46:28;;;;;;;29.30;27.10;;;;;;;;;;4994352;28;20233;-78
2020/12/04 06:49:09;;;;;;;27.48;25.50;;;;;;;;;;4994340;28;20210;-79
2020/12/04 06:51:36;;;;;;;28.67;26.63;;;;;;;;;;4994202;28;20665;-79
2020/12/04 06:54:03;;;;;;;29.35;27.20;;;;;;;;;;4994008;28;20225;-78
2020/12/04 06:56:30;;;;;;;29.35;27.05;;;;;;;;;;4994135;28;20214;-79
2020/12/04 06:58:57;;;;;;;30.05;27.83;;;;;;;;;;4994104;28;20218;-79
2020/12/04 07:01:23;;;;;;;26.42;24.63;;;;;;;;;;4996036;28;20252;-79
2020/12/04 07:03:55;;;;;;;29.50;27.20;;;;;;;;;;5075906;28;20196;-79
2020/12/04 07:06:22;;;;;;;29.27;27.13;;;;;;;;;;5075476;28;20189;-79
2020/12/04 07:08:56;;;;;;;29.80;27.52;;;;;;;;;;5075425;28;20196;-78
2020/12/04 07:11:24;;;;;;;29.35;27.15;;;;;;;;;;5057612;28;20224;-79
2020/12/04 07:13:51;;;;;;;29.42;27.13;;;;;;;;;;5075133;28;20235;-83
2020/12/04 07:16:18;;;;;;;27.52;25.33;;;;;;;;;;5075278;28;20231;-78
2020/12/04 07:18:47;;;;;;;29.77;27.55;;;;;;;;;;5075243;28;20223;-79
2020/12/04 07:21:15;;;;;;;29.95;27.65;;;;;;;;;;5075027;28;20639;-79
2020/12/04 07:23:42;;;;;;;28.23;25.95;;;;;;;;;;5074901;28;20640;-79
2020/12/04 07:26:13;;;;;;;28.92;26.52;;;;;;;;;;5074455;28;20199;-79
2020/12/04 07:28:40;;;;;;;29.58;27.27;;;;;;;;;;5074876;28;20193;-79
2020/12/04 07:31:14;;;;;;;33.50;29.52;;;;;;;;;;5074665;28;20276;-79
2020/12/04 07:33:49;;;;;;;29.98;27.58;;;;;;;;;;5074960;28;20641;-79
2020/12/04 07:36:17;;;;;;;28.58;26.52;;;;;;;;;;5075164;28;20188;-79
2020/12/04 07:38:51;;;;;;;29.50;27.20;;;;;;;;;;5075005;28;20235;-79
2020/12/04 07:41:25;;;;;;;28.98;26.75;;;;;;;;;;5075379;28;20205;-79
2020/12/04 07:43:51;;;;;;;28.58;26.25;;;;;;;;;;5074689;28;20554;-79
2020/12/04 07:46:19;;;;;;;27.23;25.13;;;;;;;;;;5075402;28;20204;-79
2020/12/04 07:49:02;;;;;;;24.60;22.92;;;;;;;;;;5075263;28;20212;-78
2020/12/04 07:51:30;;;;;;;28.15;26.10;;;;;;;;;;5075695;28;20191;-79
2020/12/04 07:53:58;;;;;;;28.02;25.73;;;;;;;;;;5074122;28;20227;-79
2020/12/04 07:56:25;;;;;;;23.30;21.70;;;;;;;;;;5074982;28;20184;-79
2020/12/04 07:58:56;;;;;;;26.75;24.80;;;;;;;;;;5074715;28;20245;-77
2020/12/04 08:01:23;;;;;;;27.35;25.40;;;;;;;;;;5074676;28;20196;-78
2020/12/04 08:03:50;;;;;;;26.60;24.50;;;;;;;;;;5074316;28;20205;-78
2020/12/04 08:06:22;;;;;;;27.67;25.73;;;;;;;;;;5074843;28;20193;-79
2020/12/04 08:09:03;;;;;;;27.10;25.10;;;;;;;;;;5074196;28;20642;-78
2020/12/04 08:11:30;;;;;;;25.50;23.60;;;;;;;;;;5074391;28;20634;-78
2020/12/04 08:13:58;;;;;;;26.10;24.10;;;;;;;;;;5074097;28;20544;-78
2020/12/04 08:16:25;;;;;;;25.63;23.73;;;;;;;;;;5056733;28;20262;-78
2020/12/04 08:18:52;;;;;;;25.45;23.77;;;;;;;;;;5074039;28;20213;-79
2020/12/04 08:21:19;;;;;;;25.00;23.40;;;;;;;;;;5074451;28;20192;-78
2020/12/04 08:23:55;;;;;;;24.90;23.20;;;;;;;;;;5074165;28;20219;-78
2020/12/04 08:26:22;;;;;;;25.45;23.65;;;;;;;;;;5074405;28;20192;-78
2020/12/04 08:28:53;;;;;;;23.90;22.30;;;;;;;;;;5073902;28;20539;-77
2020/12/04 08:31:27;;;;;;;24.48;22.85;;;;;;;;;;5074088;28;20580;-78
2020/12/04 08:33:54;;;;;;;24.83;23.13;;;;;;;;;;5074242;28;20200;-78
2020/12/04 08:36:20;;;;;;;23.17;21.70;;;;;;;;;;5056645;28;20200;-77
2020/12/04 08:38:51;;;;;;;23.58;21.90;;;;;;;;;;5051658;28;20224;-78
2020/12/04 08:41:19;;;;;;;24.02;22.52;;;;;;;;;;5073566;28;20212;-78
2020/12/04 08:43:49;;;;;;;23.58;21.98;;;;;;;;;;5073413;28;20196;-79
2020/12/04 08:46:16;;;;;;;23.52;22.02;;;;;;;;;;5073377;28;20193;-79
2020/12/04 08:48:43;;;;;;;21.42;20.13;;;;;;;;;;5073368;28;20207;-78
2020/12/04 08:51:12;;;;;;;24.15;22.45;;;;;;;;;;5073546;28;20227;-78
2020/12/04 08:53:38;;;;;;;21.98;20.45;;;;;;;;;;5073685;28;20197;-78
2020/12/04 08:56:05;;;;;;;23.55;21.98;;;;;;;;;;5073686;28;20195;-78
2020/12/04 08:58:33;;;;;;;23.38;21.88;;;;;;;;;;5073274;28;20249;-78
2020/12/04 09:01:01;;;;;;;21.83;20.48;;;;;;;;;;5073266;28;20288;-79
2020/12/04 09:03:28;;;;;;;23.40;21.80;;;;;;;;;;5073242;28;20204;-79
2020/12/04 09:05:55;;;;;;;24.40;22.80;;;;;;;;;;5073214;28;20201;-79
2020/12/04 09:08:22;;;;;;;23.30;21.75;;;;;;;;;;5072438;28;20235;-76
2020/12/04 09:10:50;;;;;;;22.90;21.50;;;;;;;;;;5074158;28;20189;-83
2020/12/04 09:13:16;;;;;;;24.25;22.05;;;;;;;;;;5073407;28;20224;-83
2020/12/04 09:15:44;;;;;;;24.13;22.58;;;;;;;;;;5073331;28;20346;-82
2020/12/04 09:18:12;;;;;;;23.55;21.95;;;;;;;;;;5073425;28;20192;-82
2020/12/04 09:20:39;;;;;;;23.83;22.23;;;;;;;;;;5073614;28;20273;-82
2020/12/04 09:23:06;;;;;;;23.75;21.95;;;;;;;;;;5073252;28;20227;-79
2020/12/04 09:25:32;;;;;;;22.48;20.90;;;;;;;;;;5073314;28;20189;-81
2020/12/04 09:27:59;;;;;;;23.13;21.63;;;;;;;;;;5056096;28;20189;-77
2020/12/04 09:30:26;;;;;;;22.52;21.13;;;;;;;;;;5073754;28;20187;-85
2020/12/04 09:32:54;;;;;;;23.20;21.70;;;;;;;;;;5073282;28;20233;-83
2020/12/04 09:35:21;;;;;;;23.48;21.88;;;;;;;;;;5073825;28;20211;-80
2020/12/04 09:37:48;;;;;;;23.60;22.00;;;;;;;;;;5073463;28;20646;-89
2020/12/04 09:40:16;;;;;;;23.52;22.02;;;;;;;;;;5073870;28;20221;-80
2020/12/04 09:42:43;;;;;;;24.88;23.27;;;;;;;;;;5073846;28;20188;-83
2020/12/04 09:45:11;;;;;;;25.45;23.77;;;;;;;;;;5074118;28;20195;-84
2020/12/04 09:47:38;;;;;;;24.45;22.95;;;;;;;;;;5078251;28;20194;-82
2020/12/04 09:50:09;;;;;;;24.17;22.65;;;;;;;;;;5075690;28;20641;-79
2020/12/04 09:52:36;;;;;;;24.88;23.08;;;;;;;;;;5079456;28;20186;-78
2020/12/04 09:55:03;;;;;;;24.75;23.05;;;;;;;;;;5078652;28;20188;-82
2020/12/04 09:57:32;;;;;;;24.00;22.38;;;;;;;;;;5079679;28;20188;-79
2020/12/04 09:59:59;;;;;;;24.73;23.08;;;;;;;;;;5081578;28;20221;-88
2020/12/04 10:02:26;;;;;;;25.77;23.90;;;;;;;;;;5082313;28;20216;-79
2020/12/04 10:04:53;;;;;;;26.02;24.13;;;;;;;;;;5079038;28;20283;-82
2020/12/04 10:07:21;;;;;;;25.13;23.38;;;;;;;;;;5078118;28;20215;-82
2020/12/04 10:09:48;;;;;;;23.90;22.33;;;;;;;;;;5079853;28;20194;-80
2020/12/04 10:12:15;;;;;;;26.05;24.25;;;;;;;;;;5076902;28;20189;-81
2020/12/04 10:14:41;;;;;;;26.23;24.30;;;;;;;;;;5077145;28;20222;-82
2020/12/04 10:17:08;;;;;;;25.58;23.67;;;;;;;;;;5076992;28;20197;-81
2020/12/04 10:19:36;;;;;;;26.13;24.13;;;;;;;;;;5077764;28;20253;-81
2020/12/04 10:22:02;;;;;;;28.48;26.67;;;;;;;;;;5076845;28;20590;-81
2020/12/04 10:24:30;;;;;;;27.10;25.27;;;;;;;;;;5077150;28;20555;-81
2020/12/04 10:26:57;;;;;;;24.67;22.98;;;;;;;;;;5077002;28;20196;-81
2020/12/04 10:29:24;;;;;;;26.20;24.58;;;;;;;;;;5076389;28;20186;-81
2020/12/04 10:31:51;;;;;;;26.20;24.50;;;;;;;;;;5076052;28;20239;-81
2020/12/04 10:34:18;;;;;;;25.70;24.00;;;;;;;;;;5076612;28;20197;-82
2020/12/04 10:36:45;;;;;;;24.58;22.92;;;;;;;;;;5076594;28;20553;-81
2020/12/04 10:39:13;;;;;;;25.40;23.27;;;;;;;;;;5076007;28;20698;-81
2020/12/04 10:41:42;;;;;;;26.30;24.42;;;;;;;;;;5076230;28;20197;-81
2020/12/04 10:44:09;;;;;;;24.42;22.63;;;;;;;;;;5076567;28;20193;-81
2020/12/04 10:46:37;;;;;;;25.48;23.50;;;;;;;;;;5075662;28;20263;-81
2020/12/04 10:49:04;;;;;;;26.02;24.13;;;;;;;;;;5076484;28;20553;-79
2020/12/04 10:51:31;;;;;;;25.70;24.00;;;;;;;;;;5076188;28;20189;-80
2020/12/04 10:53:58;;;;;;;24.98;23.27;;;;;;;;;;5076005;28;20232;-80
2020/12/04 10:56:25;;;;;;;25.23;23.50;;;;;;;;;;5076187;28;20235;-81
2020/12/04 10:58:54;;;;;;;25.08;23.38;;;;;;;;;;5075726;28;20782;-80
2020/12/04 11:01:26;;;;;;;26.75;24.80;;;;;;;;;;5076071;28;20186;-81
2020/12/04 11:06:37;;;;;;;24.80;23.20;;;;;;;;;;5075936;28;20404;-80
2020/12/04 11:09:04;;;;;;;25.00;23.38;;;;;;;;;;5076019;28;20193;-81
2020/12/04 11:11:31;;;;;;;25.55;23.85;;;;;;;;;;5075144;28;20206;-80
2020/12/04 11:13:59;;;;;;;25.80;24.00;;;;;;;;;;5075717;28;20199;-80
2020/12/04 11:16:26;;;;;;;25.42;23.65;;;;;;;;;;5075137;28;20207;-81
2020/12/04 11:18:53;;;;;;;24.80;23.10;;;;;;;;;;5075441;28;20686;-81
2020/12/04 11:21:20;;;;;;;25.67;23.73;;;;;;;;;;5075484;28;20196;-81
2020/12/04 11:23:46;;;;;;;25.23;23.52;;;;;;;;;;5075617;28;20564;-81
2020/12/04 11:26:13;;;;;;;25.30;23.58;;;;;;;;;;5075937;28;20554;-81
2020/12/04 11:28:40;;;;;;;23.83;22.20;;;;;;;;;;5075525;28;20192;-80
2020/12/04 11:31:08;;;;;;;25.33;23.63;;;;;;;;;;5074851;28;20592;-80
2020/12/04 11:33:35;;;;;;;25.58;23.48;;;;;;;;;;5075052;28;20194;-78
2020/12/04 11:36:02;;;;;;;25.45;23.63;;;;;;;;;;5057741;28;20189;-80
2020/12/04 11:38:28;;;;;;;24.02;22.35;;;;;;;;;;5075189;28;20189;-80
2020/12/04 11:40:55;;;;;;;24.30;22.70;;;;;;;;;;5075201;28;20261;-78
2020/12/04 11:43:22;;;;;;;23.80;22.20;;;;;;;;;;5074844;28;20193;-80
2020/12/04 11:45:49;;;;;;;24.15;22.48;;;;;;;;;;5074670;28;20209;-80
2020/12/04 11:48:17;;;;;;;23.85;22.35;;;;;;;;;;5074911;28;20191;-80
2020/12/04 11:50:44;;;;;;;24.27;22.70;;;;;;;;;;5074749;28;20223;-80
2020/12/04 11:53:10;;;;;;;23.60;22.08;;;;;;;;;;5074286;28;20256;-81
2020/12/04 11:55:37;;;;;;;23.98;22.48;;;;;;;;;;5074630;28;20645;-79
2020/12/04 11:58:04;;;;;;;24.90;23.30;;;;;;;;;;5056684;28;20685;-79
2020/12/04 12:00:31;;;;;;;23.17;21.77;;;;;;;;;;5074911;28;20213;-82
2020/12/04 12:02:58;;;;;;;23.50;22.00;;;;;;;;;;5057157;28;20584;-80
2020/12/04 12:05:26;;;;;;;346.95;242.45;;;;;;;;;;5074689;28;20215;-79
2020/12/04 12:07:53;;;;;;;24.25;22.75;;;;;;;;;;5073870;28;20262;-79
2020/12/04 12:10:19;;;;;;;25.10;22.93;;;;;;;;;;5056598;28;20190;-79
2020/12/04 12:12:47;;;;;;;24.95;23.35;;;;;;;;;;5055943;28;20429;-79
2020/12/04 12:15:14;;;;;;;23.90;22.27;;;;;;;;;;5074327;28;20265;-79
2020/12/04 12:17:40;;;;;;;24.52;22.98;;;;;;;;;;5074257;28;20198;-79
2020/12/04 12:20:07;;;;;;;24.52;23.02;;;;;;;;;;5073853;28;20230;-80
2020/12/04 12:22:35;;;;;;;23.88;22.27;;;;;;;;;;5074145;28;20297;-80
2020/12/04 12:25:02;;;;;;;24.15;22.55;;;;;;;;;;5074102;28;20191;-82
2020/12/04 12:27:29;;;;;;;23.98;22.38;;;;;;;;;;5073997;28;20240;-80
2020/12/04 12:29:57;;;;;;;23.42;21.92;;;;;;;;;;5073733;28;20192;-80
2020/12/04 12:32:25;;;;;;;72.47;44.70;;;;;;;;;;5072579;28;20637;-80
2020/12/04 12:35:02;;;;;;;73.70;61.03;;;;;;;;;;5074481;28;20192;-80
2020/12/04 12:37:30;;;;;;;26.60;24.70;;;;;;;;;;5073800;28;20183;-80
2020/12/04 12:39:58;;;;;;;23.20;21.80;;;;;;;;;;5073469;28;20705;-80
2020/12/04 12:42:25;;;;;;;23.80;22.30;;;;;;;;;;5073701;28;20184;-80
2020/12/04 12:44:52;;;;;;;24.27;22.67;;;;;;;;;;5074043;28;20197;-80
2020/12/04 12:47:19;;;;;;;25.35;23.55;;;;;;;;;;5073992;28;20201;-80
2020/12/04 12:49:46;;;;;;;26.27;24.58;;;;;;;;;;5073484;28;20210;-80
2020/12/04 12:52:13;;;;;;;25.60;23.80;;;;;;;;;;5055810;28;20205;-80
2020/12/04 12:54:41;;;;;;;25.48;23.77;;;;;;;;;;5073481;28;20197;-81
2020/12/04 12:57:08;;;;;;;25.85;24.15;;;;;;;;;;5073378;28;20194;-79
2020/12/04 12:59:35;;;;;;;25.30;23.60;;;;;;;;;;5073615;28;20272;-79
2020/12/04 13:02:02;;;;;;;24.42;22.92;;;;;;;;;;5073270;28;20556;-80
2020/12/04 13:04:29;;;;;;;25.08;23.48;;;;;;;;;;5073477;28;20193;-80
2020/12/04 13:06:56;;;;;;;25.02;23.35;;;;;;;;;;5073426;28;20194;-80
2020/12/04 13:09:23;;;;;;;25.73;24.02;;;;;;;;;;5073560;28;20189;-80
2020/12/04 13:11:51;;;;;;;24.77;23.17;;;;;;;;;;5072819;28;20194;-79
2020/12/04 13:14:19;;;;;;;24.13;22.67;;;;;;;;;;5073191;28;20299;-80
2020/12/04 13:16:47;;;;;;;25.65;23.95;;;;;;;;;;5073518;28;20236;-79
2020/12/04 13:19:15;;;;;;;26.17;24.48;;;;;;;;;;5073633;28;20213;-81
2020/12/04 13:21:55;;;;;;;24.90;23.30;;;;;;;;;;5073314;28;20274;-80
2020/12/04 13:24:22;;;;;;;24.95;23.40;;;;;;;;;;5073282;28;20286;-81
2020/12/04 13:26:49;;;;;;;24.65;23.05;;;;;;;;;;5077485;28;20652;-81
2020/12/04 13:29:16;;;;;;;24.90;23.30;;;;;;;;;;5077853;28;20596;-81
2020/12/04 13:31:43;;;;;;;26.20;24.50;;;;;;;;;;5077363;28;20224;-81
2020/12/04 13:34:11;;;;;;;24.92;23.25;;;;;;;;;;5059750;28;20755;-81
2020/12/04 13:36:37;;;;;;;24.88;23.30;;;;;;;;;;5077536;28;20205;-81
2020/12/04 13:39:04;;;;;;;23.75;22.25;;;;;;;;;;5077769;28;20213;-82
2020/12/04 13:41:31;;;;;;;25.30;23.70;;;;;;;;;;5077606;28;20187;-81
2020/12/04 13:43:58;;;;;;;24.23;22.70;;;;;;;;;;5077727;28;20535;-81
2020/12/04 13:46:25;;;;;;;25.67;23.98;;;;;;;;;;5077617;28;20190;-82
2020/12/04 13:48:53;;;;;;;26.65;24.95;;;;;;;;;;5077369;28;20186;-80
2020/12/04 13:51:20;;;;;;;24.20;22.70;;;;;;;;;;5077093;28;20211;-80
2020/12/04 13:53:47;;;;;;;25.17;23.30;;;;;;;;;;5076832;28;20605;-77
2020/12/04 13:56:14;;;;;;;25.13;23.23;;;;;;;;;;5077161;28;20191;-76
2020/12/04 13:58:41;;;;;;;24.63;23.08;;;;;;;;;;5077425;28;20622;-83
2020/12/04 14:01:08;;;;;;;23.88;22.48;;;;;;;;;;5077436;28;20660;-76
2020/12/04 14:03:35;;;;;;;24.60;23.10;;;;;;;;;;5076979;28;20281;-79
2020/12/04 14:06:02;;;;;;;23.50;22.10;;;;;;;;;;5076848;28;20194;-80
2020/12/04 14:08:29;;;;;;;25.38;23.73;;;;;;;;;;5075557;28;20674;-81
2020/12/04 14:10:56;;;;;;;24.25;22.42;;;;;;;;;;5076719;28;20184;-83
2020/12/04 14:13:23;;;;;;;22.92;21.58;;;;;;;;;;5077327;28;20601;-85
2020/12/04 14:15:50;;;;;;;23.83;22.10;;;;;;;;;;5058649;28;20223;-81
2020/12/04 14:18:18;;;;;;;22.73;21.27;;;;;;;;;;5075064;28;20200;-82
2020/12/04 14:20:44;;;;;;;22.65;21.20;;;;;;;;;;5076853;28;20485;-83
2020/12/04 14:23:12;;;;;;;23.55;21.80;;;;;;;;;;5077556;28;20212;-83
2020/12/04 14:25:40;;;;;;;22.40;21.00;;;;;;;;;;5076904;28;20208;-84